KKLS/KLS METAR and TAF weather

Enter ICAO airport designator
Station Type Date Time Source
KKLS METAR 2021/01/16 03:10 UTC NOAA

KKLS 160310Z AUTO 00000KT 8SM BKN008 06/05 A3046 RMK AO2


Station Type Date Time Source
KKLS Decoded METAR 2021/01/16 03:10 UTC NOAA

Kelso, Kelso-Longview Airport, WA, United States (KKLS) 46-07N 122-54W
Jan 15, 2021 - 10:10 PM EST / 2021.01.16 0310 UTC
Wind: Calm:0
Visibility: 8 mile(s):0
Sky conditions: mostly cloudy
Temperature: 42 F (6 C)
Dew Point: 41 F (5 C)
Relative Humidity: 93%
Pressure (altimeter): 30.46 in. Hg (1031 hPa)
ob: KKLS 160310Z AUTO 00000KT 8SM BKN008 06/05 A3046 RMK AO2
cycle: 3

Station Type Date Time Source
KKLS TAF UTC NOAA

Error!

Example: see airport list